createdAt,value
2022-12-11T00:10:23.000Z,65
2022-12-11T00:24:59.000Z,65.1
2022-12-11T00:39:36.000Z,63.5
2022-12-11T00:54:13.000Z,64.3
2022-12-11T01:08:50.000Z,66.7
2022-12-11T01:23:25.000Z,64.8
2022-12-11T01:38:00.000Z,72.5
2022-12-11T01:52:37.000Z,67.1
2022-12-11T02:07:14.000Z,60
2022-12-11T02:21:50.000Z,69.6
2022-12-11T02:36:26.000Z,74.7
2022-12-11T02:51:01.000Z,72
2022-12-11T03:05:37.000Z,62.4
2022-12-11T03:20:14.000Z,59.9
2022-12-11T03:34:49.000Z,59.9
2022-12-11T03:49:26.000Z,57.5
2022-12-11T04:03:56.000Z,53.1
2022-12-11T04:18:33.000Z,54.8
2022-12-11T04:33:09.000Z,62.9
2022-12-11T04:47:47.000Z,58.3
2022-12-11T05:02:24.000Z,50.7
2022-12-11T05:16:59.000Z,54.5
2022-12-11T05:31:36.000Z,57.2
2022-12-11T05:46:14.000Z,59.2
2022-12-11T06:00:41.000Z,58.1
2022-12-11T06:15:15.000Z,56
2022-12-11T06:29:51.000Z,58.6
2022-12-11T06:44:28.000Z,57
2022-12-11T06:58:58.000Z,57.3
2022-12-11T07:13:35.000Z,58.1
2022-12-11T07:28:10.000Z,61.9
2022-12-11T07:42:46.000Z,63
2022-12-11T07:57:22.000Z,61.3
2022-12-11T08:11:54.000Z,60.8
2022-12-11T08:26:25.000Z,56.7
2022-12-11T08:40:58.000Z,53.5
2022-12-11T08:55:34.000Z,61.5
2022-12-11T09:10:10.000Z,64.3
2022-12-11T09:24:48.000Z,92.3
2022-12-11T09:39:25.000Z,52.3
2022-12-11T09:54:02.000Z,50.3
2022-12-11T10:08:39.000Z,48.8
2022-12-11T10:23:18.000Z,46.6
2022-12-11T10:37:49.000Z,42.8
2022-12-11T10:52:27.000Z,46.5
2022-12-11T11:07:04.000Z,37.4
2022-12-11T11:21:43.000Z,39.4
2022-12-11T11:36:14.000Z,45.3
2022-12-11T11:50:50.000Z,30.8
2022-12-11T12:05:26.000Z,28.7
2022-12-11T12:20:02.000Z,31
2022-12-11T12:34:40.000Z,32.7
2022-12-11T12:49:17.000Z,27.6
2022-12-11T13:03:54.000Z,28.1
2022-12-11T13:18:30.000Z,26.6
2022-12-11T13:33:07.000Z,23.7
2022-12-11T13:47:45.000Z,24.6
2022-12-11T14:02:18.000Z,29.3
2022-12-11T14:16:45.000Z,24.3
2022-12-11T14:31:22.000Z,25.6
2022-12-11T14:45:57.000Z,24.9
2022-12-11T15:00:27.000Z,25.9
2022-12-11T15:14:56.000Z,29.7
2022-12-11T15:29:26.000Z,25.9
2022-12-11T15:44:02.000Z,23.5
2022-12-11T15:58:39.000Z,32
2022-12-11T16:13:15.000Z,31
2022-12-11T16:27:51.000Z,28.9
2022-12-11T16:42:22.000Z,32.1
2022-12-11T16:56:58.000Z,25.8
2022-12-11T17:11:29.000Z,28.7
2022-12-11T17:26:08.000Z,31.6
2022-12-11T17:40:42.000Z,30.8
2022-12-11T17:55:18.000Z,31.1
2022-12-11T18:09:55.000Z,31.2
2022-12-11T18:24:30.000Z,38.7
2022-12-11T18:38:59.000Z,32.6
2022-12-11T18:53:31.000Z,41.7
2022-12-11T19:08:08.000Z,42.9
2022-12-11T19:22:42.000Z,37.1
2022-12-11T19:37:19.000Z,45.7
2022-12-11T19:51:56.000Z,36.8
2022-12-11T20:06:31.000Z,39.7
2022-12-11T20:21:08.000Z,46
2022-12-11T20:35:45.000Z,34.8
2022-12-11T20:50:14.000Z,43.9
2022-12-11T21:04:51.000Z,34.2
2022-12-11T21:19:25.000Z,32.1
2022-12-11T21:33:58.000Z,40.4
2022-12-11T21:48:36.000Z,35.9
2022-12-11T22:03:12.000Z,30.5
2022-12-11T22:17:49.000Z,68.3
2022-12-11T22:32:25.000Z,96.4
2022-12-11T22:47:00.000Z,33.9
2022-12-11T23:01:37.000Z,37.1
2022-12-11T23:16:14.000Z,52.9
2022-12-11T23:30:50.000Z,34
2022-12-11T23:45:22.000Z,34.1
2022-12-11T23:59:59.000Z,33.4
